sensor_id;sensor_type;location;lat;lon;timestamp;P1;durP1;ratioP1;P2;durP2;ratioP2
79025;SDS011;74892;44.760;37.726;2024-01-27T00:01:00;9.18;;;5.03;;
79025;SDS011;74892;44.760;37.726;2024-01-27T00:02:02;8.38;;;4.63;;
79025;SDS011;74892;44.760;37.726;2024-01-27T00:03:04;9.85;;;5.20;;
79025;SDS011;74892;44.760;37.726;2024-01-27T00:04:06;10.52;;;5.40;;
79025;SDS011;74892;44.760;37.726;2024-01-27T00:05:10;8.10;;;5.07;;
79025;SDS011;74892;44.760;37.726;2024-01-27T00:06:12;9.73;;;4.63;;
79025;SDS011;74892;44.760;37.726;2024-01-27T00:07:14;7.93;;;5.60;;
79025;SDS011;74892;44.760;37.726;2024-01-27T00:08:16;8.95;;;5.00;;
79025;SDS011;74892;44.760;37.726;2024-01-27T00:09:17;10.18;;;5.53;;
79025;SDS011;74892;44.760;37.726;2024-01-27T00:10:19;10.88;;;5.43;;
79025;SDS011;74892;44.760;37.726;2024-01-27T00:11:21;11.55;;;4.88;;
79025;SDS011;74892;44.760;37.726;2024-01-27T00:12:25;10.18;;;5.68;;
79025;SDS011;74892;44.760;37.726;2024-01-27T00:13:27;11.32;;;5.30;;
79025;SDS011;74892;44.760;37.726;2024-01-27T00:14:29;9.30;;;5.47;;
79025;SDS011;74892;44.760;37.726;2024-01-27T00:15:30;12.95;;;5.47;;
79025;SDS011;74892;44.760;37.726;2024-01-27T00:16:32;21.40;;;5.20;;
79025;SDS011;74892;44.760;37.726;2024-01-27T00:17:33;14.82;;;5.60;;
79025;SDS011;74892;44.760;37.726;2024-01-27T00:18:36;11.77;;;4.95;;
79025;SDS011;74892;44.760;37.726;2024-01-27T00:19:39;9.32;;;5.30;;
79025;SDS011;74892;44.760;37.726;2024-01-27T00:20:41;11.10;;;4.97;;
79025;SDS011;74892;44.760;37.726;2024-01-27T00:21:42;10.07;;;4.82;;
79025;SDS011;74892;44.760;37.726;2024-01-27T00:22:44;9.38;;;4.78;;
79025;SDS011;74892;44.760;37.726;2024-01-27T00:23:49;8.30;;;4.50;;
79025;SDS011;74892;44.760;37.726;2024-01-27T00:24:50;8.57;;;5.13;;
79025;SDS011;74892;44.760;37.726;2024-01-27T00:25:54;8.13;;;4.68;;
79025;SDS011;74892;44.760;37.726;2024-01-27T00:26:56;9.68;;;5.10;;
79025;SDS011;74892;44.760;37.726;2024-01-27T00:27:58;7.68;;;5.22;;
79025;SDS011;74892;44.760;37.726;2024-01-27T00:28:59;8.77;;;4.88;;
79025;SDS011;74892;44.760;37.726;2024-01-27T00:30:01;9.00;;;5.03;;
79025;SDS011;74892;44.760;37.726;2024-01-27T00:31:05;8.25;;;4.95;;
79025;SDS011;74892;44.760;37.726;2024-01-27T00:33:11;9.50;;;4.70;;
79025;SDS011;74892;44.760;37.726;2024-01-27T00:34:13;8.80;;;4.50;;
79025;SDS011;74892;44.760;37.726;2024-01-27T00:35:14;6.05;;;3.78;;
79025;SDS011;74892;44.760;37.726;2024-01-27T00:36:18;6.60;;;3.90;;
79025;SDS011;74892;44.760;37.726;2024-01-27T00:37:21;6.95;;;4.13;;
79025;SDS011;74892;44.760;37.726;2024-01-27T00:38:22;7.78;;;4.50;;
79025;SDS011;74892;44.760;37.726;2024-01-27T00:39:24;9.48;;;4.60;;
79025;SDS011;74892;44.760;37.726;2024-01-27T00:40:26;7.90;;;4.57;;
79025;SDS011;74892;44.760;37.726;2024-01-27T00:41:28;7.68;;;4.53;;
79025;SDS011;74892;44.760;37.726;2024-01-27T00:42:30;8.35;;;4.82;;
79025;SDS011;74892;44.760;37.726;2024-01-27T00:43:31;7.22;;;4.30;;
79025;SDS011;74892;44.760;37.726;2024-01-27T00:44:35;8.52;;;4.28;;
79025;SDS011;74892;44.760;37.726;2024-01-27T00:45:37;6.03;;;3.58;;
79025;SDS011;74892;44.760;37.726;2024-01-27T00:46:39;6.15;;;4.03;;
79025;SDS011;74892;44.760;37.726;2024-01-27T00:47:41;8.57;;;4.47;;
79025;SDS011;74892;44.760;37.726;2024-01-27T00:48:46;8.50;;;4.68;;
79025;SDS011;74892;44.760;37.726;2024-01-27T00:49:48;9.05;;;4.07;;
79025;SDS011;74892;44.760;37.726;2024-01-27T00:50:50;8.60;;;4.15;;
79025;SDS011;74892;44.760;37.726;2024-01-27T00:51:54;8.38;;;4.72;;
79025;SDS011;74892;44.760;37.726;2024-01-27T00:52:58;7.03;;;4.03;;
79025;SDS011;74892;44.760;37.726;2024-01-27T00:53:59;8.50;;;4.78;;
79025;SDS011;74892;44.760;37.726;2024-01-27T00:55:01;8.52;;;4.45;;
79025;SDS011;74892;44.760;37.726;2024-01-27T00:56:03;6.38;;;4.43;;
79025;SDS011;74892;44.760;37.726;2024-01-27T00:57:11;7.22;;;4.03;;
79025;SDS011;74892;44.760;37.726;2024-01-27T00:58:13;8.13;;;3.78;;
79025;SDS011;74892;44.760;37.726;2024-01-27T00:59:14;6.05;;;3.75;;
79025;SDS011;74892;44.760;37.726;2024-01-27T01:00:16;5.97;;;4.13;;
79025;SDS011;74892;44.760;37.726;2024-01-27T01:01:18;7.30;;;4.15;;
79025;SDS011;74892;44.760;37.726;2024-01-27T01:02:29;6.85;;;4.43;;
79025;SDS011;74892;44.760;37.726;2024-01-27T01:03:34;7.47;;;4.40;;
79025;SDS011;74892;44.760;37.726;2024-01-27T01:04:38;7.15;;;4.07;;
79025;SDS011;74892;44.760;37.726;2024-01-27T01:05:39;7.35;;;3.58;;
79025;SDS011;74892;44.760;37.726;2024-01-27T01:06:44;5.68;;;3.53;;
79025;SDS011;74892;44.760;37.726;2024-01-27T01:08:50;9.02;;;3.80;;
79025;SDS011;74892;44.760;37.726;2024-01-27T01:09:54;13.45;;;3.78;;
79025;SDS011;74892;44.760;37.726;2024-01-27T01:10:56;7.53;;;3.90;;
79025;SDS011;74892;44.760;37.726;2024-01-27T01:11:57;6.13;;;3.60;;
79025;SDS011;74892;44.760;37.726;2024-01-27T01:12:59;6.32;;;4.45;;
79025;SDS011;74892;44.760;37.726;2024-01-27T01:14:21;6.88;;;4.65;;
79025;SDS011;74892;44.760;37.726;2024-01-27T01:15:23;7.22;;;3.72;;
79025;SDS011;74892;44.760;37.726;2024-01-27T01:16:27;8.05;;;4.70;;
79025;SDS011;74892;44.760;37.726;2024-01-27T01:17:29;6.95;;;4.18;;
79025;SDS011;74892;44.760;37.726;2024-01-27T01:18:30;7.57;;;4.50;;
79025;SDS011;74892;44.760;37.726;2024-01-27T01:19:32;8.13;;;5.25;;
79025;SDS011;74892;44.760;37.726;2024-01-27T01:20:37;7.88;;;3.97;;
79025;SDS011;74892;44.760;37.726;2024-01-27T01:21:39;7.82;;;4.53;;
79025;SDS011;74892;44.760;37.726;2024-01-27T01:22:40;11.18;;;4.90;;
79025;SDS011;74892;44.760;37.726;2024-01-27T01:23:43;6.28;;;4.40;;
79025;SDS011;74892;44.760;37.726;2024-01-27T01:24:44;7.35;;;4.30;;
79025;SDS011;74892;44.760;37.726;2024-01-27T01:25:47;9.32;;;4.18;;
79025;SDS011;74892;44.760;37.726;2024-01-27T01:26:48;7.72;;;4.60;;
79025;SDS011;74892;44.760;37.726;2024-01-27T01:27:53;9.68;;;4.50;;
79025;SDS011;74892;44.760;37.726;2024-01-27T01:28:54;7.70;;;4.03;;
79025;SDS011;74892;44.760;37.726;2024-01-27T01:29:56;7.35;;;4.55;;
79025;SDS011;74892;44.760;37.726;2024-01-27T01:30:58;8.20;;;4.43;;
79025;SDS011;74892;44.760;37.726;2024-01-27T01:31:59;6.63;;;4.28;;
79025;SDS011;74892;44.760;37.726;2024-01-27T01:34:05;5.47;;;3.90;;
79025;SDS011;74892;44.760;37.726;2024-01-27T01:35:07;6.10;;;4.20;;
79025;SDS011;74892;44.760;37.726;2024-01-27T01:36:14;8.23;;;3.95;;
79025;SDS011;74892;44.760;37.726;2024-01-27T01:37:18;5.82;;;3.92;;
79025;SDS011;74892;44.760;37.726;2024-01-27T01:38:20;7.28;;;4.47;;
79025;SDS011;74892;44.760;37.726;2024-01-27T01:39:24;6.82;;;4.47;;
79025;SDS011;74892;44.760;37.726;2024-01-27T01:40:26;8.38;;;6.03;;
79025;SDS011;74892;44.760;37.726;2024-01-27T01:41:28;8.25;;;5.40;;
79025;SDS011;74892;44.760;37.726;2024-01-27T01:42:32;11.40;;;6.20;;
79025;SDS011;74892;44.760;37.726;2024-01-27T01:43:37;9.25;;;6.80;;
79025;SDS011;74892;44.760;37.726;2024-01-27T01:44:39;8.93;;;6.10;;
79025;SDS011;74892;44.760;37.726;2024-01-27T01:45:40;10.38;;;6.25;;
79025;SDS011;74892;44.760;37.726;2024-01-27T01:46:45;10.55;;;5.88;;
79025;SDS011;74892;44.760;37.726;2024-01-27T01:47:49;10.90;;;6.85;;
79025;SDS011;74892;44.760;37.726;2024-01-27T01:48:53;9.63;;;6.95;;
79025;SDS011;74892;44.760;37.726;2024-01-27T01:49:59;12.00;;;7.53;;
79025;SDS011;74892;44.760;37.726;2024-01-27T01:51:03;12.35;;;7.13;;
79025;SDS011;74892;44.760;37.726;2024-01-27T01:52:05;10.88;;;7.18;;
79025;SDS011;74892;44.760;37.726;2024-01-27T01:53:08;13.48;;;7.63;;
79025;SDS011;74892;44.760;37.726;2024-01-27T01:54:10;12.95;;;7.47;;
79025;SDS011;74892;44.760;37.726;2024-01-27T01:55:13;13.55;;;7.97;;
79025;SDS011;74892;44.760;37.726;2024-01-27T01:56:15;13.18;;;7.78;;
79025;SDS011;74892;44.760;37.726;2024-01-27T01:57:17;15.93;;;8.15;;
79025;SDS011;74892;44.760;37.726;2024-01-27T01:58:22;13.40;;;8.10;;
79025;SDS011;74892;44.760;37.726;2024-01-27T01:59:24;12.95;;;8.25;;
79025;SDS011;74892;44.760;37.726;2024-01-27T02:00:26;12.70;;;8.07;;
79025;SDS011;74892;44.760;37.726;2024-01-27T02:01:27;13.82;;;7.65;;
79025;SDS011;74892;44.760;37.726;2024-01-27T02:02:29;14.60;;;8.13;;
79025;SDS011;74892;44.760;37.726;2024-01-27T02:03:31;11.32;;;7.47;;
79025;SDS011;74892;44.760;37.726;2024-01-27T02:04:39;11.73;;;7.95;;
79025;SDS011;74892;44.760;37.726;2024-01-27T02:05:43;12.98;;;8.00;;
79025;SDS011;74892;44.760;37.726;2024-01-27T02:06:45;13.40;;;8.00;;
79025;SDS011;74892;44.760;37.726;2024-01-27T02:07:47;13.48;;;7.55;;
79025;SDS011;74892;44.760;37.726;2024-01-27T02:08:49;11.55;;;6.97;;
79025;SDS011;74892;44.760;37.726;2024-01-27T02:09:51;11.38;;;6.47;;
79025;SDS011;74892;44.760;37.726;2024-01-27T02:10:53;11.27;;;7.13;;
79025;SDS011;74892;44.760;37.726;2024-01-27T02:11:55;12.45;;;7.45;;
79025;SDS011;74892;44.760;37.726;2024-01-27T02:12:57;13.23;;;8.35;;
79025;SDS011;74892;44.760;37.726;2024-01-27T02:13:59;13.82;;;8.23;;
79025;SDS011;74892;44.760;37.726;2024-01-27T02:15:01;12.30;;;8.05;;
79025;SDS011;74892;44.760;37.726;2024-01-27T02:16:03;13.13;;;7.80;;
79025;SDS011;74892;44.760;37.726;2024-01-27T02:17:12;13.70;;;7.63;;
79025;SDS011;74892;44.760;37.726;2024-01-27T02:18:14;15.07;;;7.32;;
79025;SDS011;74892;44.760;37.726;2024-01-27T02:19:16;13.13;;;7.10;;
79025;SDS011;74892;44.760;37.726;2024-01-27T02:20:18;10.93;;;6.50;;
79025;SDS011;74892;44.760;37.726;2024-01-27T02:21:19;10.38;;;6.43;;
79025;SDS011;74892;44.760;37.726;2024-01-27T02:22:23;11.05;;;6.60;;
79025;SDS011;74892;44.760;37.726;2024-01-27T02:23:25;11.63;;;6.43;;
79025;SDS011;74892;44.760;37.726;2024-01-27T02:24:28;11.52;;;6.80;;
79025;SDS011;74892;44.760;37.726;2024-01-27T02:25:33;10.98;;;6.88;;
79025;SDS011;74892;44.760;37.726;2024-01-27T02:26:35;11.60;;;7.13;;
79025;SDS011;74892;44.760;37.726;2024-01-27T02:27:37;9.68;;;6.35;;
79025;SDS011;74892;44.760;37.726;2024-01-27T02:28:39;11.98;;;6.40;;
79025;SDS011;74892;44.760;37.726;2024-01-27T02:29:40;10.68;;;6.38;;
79025;SDS011;74892;44.760;37.726;2024-01-27T02:30:42;9.60;;;5.90;;
79025;SDS011;74892;44.760;37.726;2024-01-27T02:31:47;13.25;;;6.40;;
79025;SDS011;74892;44.760;37.726;2024-01-27T02:32:49;9.93;;;6.13;;
79025;SDS011;74892;44.760;37.726;2024-01-27T02:33:56;9.98;;;5.90;;
79025;SDS011;74892;44.760;37.726;2024-01-27T02:34:58;11.52;;;6.45;;
79025;SDS011;74892;44.760;37.726;2024-01-27T02:37:03;10.68;;;6.50;;
79025;SDS011;74892;44.760;37.726;2024-01-27T02:38:06;12.00;;;5.90;;
79025;SDS011;74892;44.760;37.726;2024-01-27T02:39:07;9.90;;;6.25;;
79025;SDS011;74892;44.760;37.726;2024-01-27T02:40:09;12.18;;;7.03;;
79025;SDS011;74892;44.760;37.726;2024-01-27T02:41:11;11.48;;;6.70;;
79025;SDS011;74892;44.760;37.726;2024-01-27T02:42:13;9.95;;;5.55;;
79025;SDS011;74892;44.760;37.726;2024-01-27T02:43:15;9.23;;;4.38;;
79025;SDS011;74892;44.760;37.726;2024-01-27T02:44:17;6.93;;;4.25;;
79025;SDS011;74892;44.760;37.726;2024-01-27T02:45:22;7.40;;;3.80;;
79025;SDS011;74892;44.760;37.726;2024-01-27T02:46:24;7.07;;;3.28;;
79025;SDS011;74892;44.760;37.726;2024-01-27T02:47:28;6.70;;;3.42;;
79025;SDS011;74892;44.760;37.726;2024-01-27T02:48:29;5.88;;;3.80;;
79025;SDS011;74892;44.760;37.726;2024-01-27T02:49:34;7.28;;;3.30;;
79025;SDS011;74892;44.760;37.726;2024-01-27T02:50:36;6.68;;;4.30;;
79025;SDS011;74892;44.760;37.726;2024-01-27T02:51:38;7.82;;;4.20;;
79025;SDS011;74892;44.760;37.726;2024-01-27T02:52:42;7.50;;;3.67;;
79025;SDS011;74892;44.760;37.726;2024-01-27T02:53:44;8.40;;;3.33;;
79025;SDS011;74892;44.760;37.726;2024-01-27T02:55:49;11.93;;;3.40;;
79025;SDS011;74892;44.760;37.726;2024-01-27T02:56:51;6.75;;;3.13;;
79025;SDS011;74892;44.760;37.726;2024-01-27T02:57:53;5.78;;;3.15;;
79025;SDS011;74892;44.760;37.726;2024-01-27T02:58:54;7.65;;;3.53;;
79025;SDS011;74892;44.760;37.726;2024-01-27T02:59:59;5.97;;;3.35;;
79025;SDS011;74892;44.760;37.726;2024-01-27T03:01:04;7.72;;;3.58;;
79025;SDS011;74892;44.760;37.726;2024-01-27T03:02:09;6.45;;;3.92;;
79025;SDS011;74892;44.760;37.726;2024-01-27T03:03:11;9.20;;;6.68;;
79025;SDS011;74892;44.760;37.726;2024-01-27T03:04:12;9.45;;;6.38;;
79025;SDS011;74892;44.760;37.726;2024-01-27T03:05:14;9.80;;;6.60;;
79025;SDS011;74892;44.760;37.726;2024-01-27T03:06:16;8.68;;;4.97;;
79025;SDS011;74892;44.760;37.726;2024-01-27T03:07:18;8.80;;;5.63;;
79025;SDS011;74892;44.760;37.726;2024-01-27T03:08:19;10.05;;;5.75;;
79025;SDS011;74892;44.760;37.726;2024-01-27T03:09:21;9.65;;;6.43;;
79025;SDS011;74892;44.760;37.726;2024-01-27T03:10:23;9.93;;;5.07;;
79025;SDS011;74892;44.760;37.726;2024-01-27T03:11:27;8.90;;;6.05;;
79025;SDS011;74892;44.760;37.726;2024-01-27T03:12:32;9.50;;;5.93;;
79025;SDS011;74892;44.760;37.726;2024-01-27T03:13:33;12.38;;;7.03;;
79025;SDS011;74892;44.760;37.726;2024-01-27T03:14:35;11.35;;;7.00;;
79025;SDS011;74892;44.760;37.726;2024-01-27T03:15:41;9.10;;;5.93;;
79025;SDS011;74892;44.760;37.726;2024-01-27T03:16:44;10.73;;;6.18;;
79025;SDS011;74892;44.760;37.726;2024-01-27T03:17:45;11.80;;;6.65;;
79025;SDS011;74892;44.760;37.726;2024-01-27T03:18:47;9.90;;;5.80;;
79025;SDS011;74892;44.760;37.726;2024-01-27T03:19:49;12.60;;;6.55;;
79025;SDS011;74892;44.760;37.726;2024-01-27T03:20:51;10.65;;;6.93;;
79025;SDS011;74892;44.760;37.726;2024-01-27T03:21:52;10.68;;;6.68;;
79025;SDS011;74892;44.760;37.726;2024-01-27T03:22:54;10.82;;;6.30;;
79025;SDS011;74892;44.760;37.726;2024-01-27T03:23:56;10.70;;;6.25;;
79025;SDS011;74892;44.760;37.726;2024-01-27T03:24:58;9.70;;;5.25;;
79025;SDS011;74892;44.760;37.726;2024-01-27T03:26:01;8.63;;;4.55;;
79025;SDS011;74892;44.760;37.726;2024-01-27T03:27:04;10.15;;;4.80;;
79025;SDS011;74892;44.760;37.726;2024-01-27T03:28:05;8.07;;;4.80;;
79025;SDS011;74892;44.760;37.726;2024-01-27T03:29:07;8.05;;;4.60;;
79025;SDS011;74892;44.760;37.726;2024-01-27T03:30:09;7.45;;;3.97;;
79025;SDS011;74892;44.760;37.726;2024-01-27T03:31:12;8.25;;;4.97;;
79025;SDS011;74892;44.760;37.726;2024-01-27T03:32:14;9.52;;;4.65;;
79025;SDS011;74892;44.760;37.726;2024-01-27T03:33:16;8.07;;;4.38;;
79025;SDS011;74892;44.760;37.726;2024-01-27T03:34:18;8.40;;;4.50;;
79025;SDS011;74892;44.760;37.726;2024-01-27T03:35:22;9.40;;;4.53;;
79025;SDS011;74892;44.760;37.726;2024-01-27T03:36:23;8.07;;;4.97;;
79025;SDS011;74892;44.760;37.726;2024-01-27T03:37:25;9.80;;;5.22;;
79025;SDS011;74892;44.760;37.726;2024-01-27T03:38:28;9.88;;;5.80;;
79025;SDS011;74892;44.760;37.726;2024-01-27T03:39:32;10.32;;;5.22;;
79025;SDS011;74892;44.760;37.726;2024-01-27T03:40:34;8.65;;;5.13;;
79025;SDS011;74892;44.760;37.726;2024-01-27T03:41:35;8.68;;;5.25;;
79025;SDS011;74892;44.760;37.726;2024-01-27T03:42:37;8.90;;;5.78;;
79025;SDS011;74892;44.760;37.726;2024-01-27T03:43:39;9.35;;;5.65;;
79025;SDS011;74892;44.760;37.726;2024-01-27T03:45:47;9.38;;;5.03;;
79025;SDS011;74892;44.760;37.726;2024-01-27T03:46:48;9.43;;;5.50;;
79025;SDS011;74892;44.760;37.726;2024-01-27T03:47:52;8.18;;;5.07;;
79025;SDS011;74892;44.760;37.726;2024-01-27T03:48:54;7.32;;;4.82;;
79025;SDS011;74892;44.760;37.726;2024-01-27T03:49:55;7.00;;;4.50;;
79025;SDS011;74892;44.760;37.726;2024-01-27T03:50:57;8.70;;;4.40;;
79025;SDS011;74892;44.760;37.726;2024-01-27T03:51:59;7.88;;;4.78;;
79025;SDS011;74892;44.760;37.726;2024-01-27T03:53:03;7.22;;;4.85;;
79025;SDS011;74892;44.760;37.726;2024-01-27T03:54:05;7.50;;;4.55;;
79025;SDS011;74892;44.760;37.726;2024-01-27T03:55:07;8.07;;;4.78;;
79025;SDS011;74892;44.760;37.726;2024-01-27T03:56:12;7.60;;;4.72;;
79025;SDS011;74892;44.760;37.726;2024-01-27T03:57:14;7.40;;;4.50;;
79025;SDS011;74892;44.760;37.726;2024-01-27T03:58:15;12.05;;;5.63;;
79025;SDS011;74892;44.760;37.726;2024-01-27T03:59:17;8.32;;;4.88;;
79025;SDS011;74892;44.760;37.726;2024-01-27T04:00:18;8.55;;;5.18;;
79025;SDS011;74892;44.760;37.726;2024-01-27T04:01:21;9.82;;;5.40;;
79025;SDS011;74892;44.760;37.726;2024-01-27T04:02:23;10.65;;;5.15;;
79025;SDS011;74892;44.760;37.726;2024-01-27T04:03:25;9.63;;;5.40;;
79025;SDS011;74892;44.760;37.726;2024-01-27T04:04:26;12.80;;;6.30;;
79025;SDS011;74892;44.760;37.726;2024-01-27T04:05:28;10.10;;;5.28;;
79025;SDS011;74892;44.760;37.726;2024-01-27T04:06:35;8.82;;;4.97;;
79025;SDS011;74892;44.760;37.726;2024-01-27T04:07:39;7.65;;;4.63;;
79025;SDS011;74892;44.760;37.726;2024-01-27T04:08:41;8.88;;;5.57;;
79025;SDS011;74892;44.760;37.726;2024-01-27T04:09:44;8.63;;;5.15;;
79025;SDS011;74892;44.760;37.726;2024-01-27T04:10:46;9.85;;;5.43;;
79025;SDS011;74892;44.760;37.726;2024-01-27T04:11:48;9.32;;;5.15;;
79025;SDS011;74892;44.760;37.726;2024-01-27T04:12:49;7.85;;;4.65;;
79025;SDS011;74892;44.760;37.726;2024-01-27T04:13:51;6.95;;;3.97;;
79025;SDS011;74892;44.760;37.726;2024-01-27T04:14:52;8.10;;;4.30;;
79025;SDS011;74892;44.760;37.726;2024-01-27T04:15:54;7.70;;;4.00;;
79025;SDS011;74892;44.760;37.726;2024-01-27T04:16:56;5.80;;;3.58;;
79025;SDS011;74892;44.760;37.726;2024-01-27T04:17:57;9.43;;;4.65;;
79025;SDS011;74892;44.760;37.726;2024-01-27T04:18:59;7.35;;;4.28;;
79025;SDS011;74892;44.760;37.726;2024-01-27T04:20:01;7.55;;;4.22;;
79025;SDS011;74892;44.760;37.726;2024-01-27T04:21:02;9.13;;;4.72;;
79025;SDS011;74892;44.760;37.726;2024-01-27T04:22:04;8.32;;;5.30;;
79025;SDS011;74892;44.760;37.726;2024-01-27T04:23:06;9.82;;;6.00;;
79025;SDS011;74892;44.760;37.726;2024-01-27T04:24:08;9.35;;;5.65;;
79025;SDS011;74892;44.760;37.726;2024-01-27T04:25:10;9.35;;;5.50;;
79025;SDS011;74892;44.760;37.726;2024-01-27T04:26:12;8.13;;;5.55;;
79025;SDS011;74892;44.760;37.726;2024-01-27T04:27:14;9.57;;;5.57;;
79025;SDS011;74892;44.760;37.726;2024-01-27T04:28:16;11.65;;;7.18;;
79025;SDS011;74892;44.760;37.726;2024-01-27T04:29:18;11.85;;;7.25;;
79025;SDS011;74892;44.760;37.726;2024-01-27T04:30:20;11.57;;;7.00;;
79025;SDS011;74892;44.760;37.726;2024-01-27T04:31:21;9.73;;;6.28;;
79025;SDS011;74892;44.760;37.726;2024-01-27T04:32:23;8.75;;;5.05;;
79025;SDS011;74892;44.760;37.726;2024-01-27T04:33:25;8.82;;;4.90;;
79025;SDS011;74892;44.760;37.726;2024-01-27T04:34:27;8.52;;;4.85;;
79025;SDS011;74892;44.760;37.726;2024-01-27T04:35:28;11.23;;;5.50;;
79025;SDS011;74892;44.760;37.726;2024-01-27T04:36:30;8.23;;;4.68;;
79025;SDS011;74892;44.760;37.726;2024-01-27T04:37:32;8.45;;;4.88;;
79025;SDS011;74892;44.760;37.726;2024-01-27T04:38:33;9.98;;;5.50;;
79025;SDS011;74892;44.760;37.726;2024-01-27T04:39:35;10.40;;;5.57;;
79025;SDS011;74892;44.760;37.726;2024-01-27T04:40:38;8.38;;;5.10;;
79025;SDS011;74892;44.760;37.726;2024-01-27T04:41:43;8.50;;;5.38;;
79025;SDS011;74892;44.760;37.726;2024-01-27T04:42:47;7.28;;;4.22;;
79025;SDS011;74892;44.760;37.726;2024-01-27T04:43:49;7.45;;;4.63;;
79025;SDS011;74892;44.760;37.726;2024-01-27T04:44:51;8.57;;;5.10;;
79025;SDS011;74892;44.760;37.726;2024-01-27T04:45:53;7.10;;;4.55;;
79025;SDS011;74892;44.760;37.726;2024-01-27T04:46:55;8.70;;;4.68;;
79025;SDS011;74892;44.760;37.726;2024-01-27T04:47:56;8.43;;;4.65;;
79025;SDS011;74892;44.760;37.726;2024-01-27T04:48:58;7.15;;;4.60;;
79025;SDS011;74892;44.760;37.726;2024-01-27T04:50:00;8.38;;;5.25;;
79025;SDS011;74892;44.760;37.726;2024-01-27T04:51:02;8.95;;;5.70;;
79025;SDS011;74892;44.760;37.726;2024-01-27T04:52:05;7.03;;;5.18;;
79025;SDS011;74892;44.760;37.726;2024-01-27T04:53:07;8.88;;;5.60;;
79025;SDS011;74892;44.760;37.726;2024-01-27T04:54:09;8.23;;;5.15;;
79025;SDS011;74892;44.760;37.726;2024-01-27T04:55:11;9.00;;;5.28;;
79025;SDS011;74892;44.760;37.726;2024-01-27T04:56:12;10.02;;;6.07;;
79025;SDS011;74892;44.760;37.726;2024-01-27T04:57:14;9.30;;;6.15;;
79025;SDS011;74892;44.760;37.726;2024-01-27T04:58:16;8.65;;;6.25;;
79025;SDS011;74892;44.760;37.726;2024-01-27T04:59:18;9.45;;;6.32;;
79025;SDS011;74892;44.760;37.726;2024-01-27T05:00:20;12.07;;;8.23;;
79025;SDS011;74892;44.760;37.726;2024-01-27T05:02:25;9.85;;;6.45;;
79025;SDS011;74892;44.760;37.726;2024-01-27T05:03:27;10.30;;;5.63;;
79025;SDS011;74892;44.760;37.726;2024-01-27T05:04:28;8.70;;;5.57;;
79025;SDS011;74892;44.760;37.726;2024-01-27T05:05:30;9.82;;;5.80;;
79025;SDS011;74892;44.760;37.726;2024-01-27T05:06:31;9.93;;;5.72;;
79025;SDS011;74892;44.760;37.726;2024-01-27T05:07:33;8.57;;;5.28;;
79025;SDS011;74892;44.760;37.726;2024-01-27T05:08:35;8.45;;;5.20;;
79025;SDS011;74892;44.760;37.726;2024-01-27T05:09:36;8.55;;;5.32;;
79025;SDS011;74892;44.760;37.726;2024-01-27T05:10:38;9.60;;;5.53;;
79025;SDS011;74892;44.760;37.726;2024-01-27T05:11:39;9.35;;;5.57;;
79025;SDS011;74892;44.760;37.726;2024-01-27T05:12:43;8.50;;;5.63;;
79025;SDS011;74892;44.760;37.726;2024-01-27T05:13:45;8.27;;;4.80;;
79025;SDS011;74892;44.760;37.726;2024-01-27T05:14:46;10.57;;;5.45;;
79025;SDS011;74892;44.760;37.726;2024-01-27T05:15:48;8.05;;;4.97;;
79025;SDS011;74892;44.760;37.726;2024-01-27T05:16:50;10.05;;;5.20;;
79025;SDS011;74892;44.760;37.726;2024-01-27T05:17:52;8.77;;;6.07;;
79025;SDS011;74892;44.760;37.726;2024-01-27T05:18:53;8.45;;;5.57;;
79025;SDS011;74892;44.760;37.726;2024-01-27T05:19:55;9.40;;;5.93;;
79025;SDS011;74892;44.760;37.726;2024-01-27T05:20:58;10.32;;;5.07;;
79025;SDS011;74892;44.760;37.726;2024-01-27T05:21:59;11.32;;;5.80;;
79025;SDS011;74892;44.760;37.726;2024-01-27T05:23:01;8.88;;;5.57;;
79025;SDS011;74892;44.760;37.726;2024-01-27T05:24:02;8.52;;;5.50;;
79025;SDS011;74892;44.760;37.726;2024-01-27T05:25:05;8.10;;;5.10;;
79025;SDS011;74892;44.760;37.726;2024-01-27T05:26:07;8.70;;;5.80;;
79025;SDS011;74892;44.760;37.726;2024-01-27T05:27:08;9.55;;;5.30;;
79025;SDS011;74892;44.760;37.726;2024-01-27T05:28:10;8.82;;;5.43;;
79025;SDS011;74892;44.760;37.726;2024-01-27T05:29:11;8.88;;;5.65;;
79025;SDS011;74892;44.760;37.726;2024-01-27T05:30:13;7.13;;;5.00;;
79025;SDS011;74892;44.760;37.726;2024-01-27T05:31:16;7.50;;;5.00;;
79025;SDS011;74892;44.760;37.726;2024-01-27T05:32:18;7.78;;;4.93;;
79025;SDS011;74892;44.760;37.726;2024-01-27T05:33:19;8.90;;;6.00;;
79025;SDS011;74892;44.760;37.726;2024-01-27T05:34:21;8.30;;;5.63;;
79025;SDS011;74892;44.760;37.726;2024-01-27T05:35:22;9.10;;;5.60;;
79025;SDS011;74892;44.760;37.726;2024-01-27T05:36:24;9.80;;;5.57;;
79025;SDS011;74892;44.760;37.726;2024-01-27T05:37:26;9.43;;;6.13;;
79025;SDS011;74892;44.760;37.726;2024-01-27T05:38:27;10.40;;;6.32;;
79025;SDS011;74892;44.760;37.726;2024-01-27T05:39:30;9.57;;;5.53;;
79025;SDS011;74892;44.760;37.726;2024-01-27T05:40:33;8.32;;;5.20;;
79025;SDS011;74892;44.760;37.726;2024-01-27T05:41:34;10.27;;;6.03;;
79025;SDS011;74892;44.760;37.726;2024-01-27T05:42:37;9.68;;;5.55;;
79025;SDS011;74892;44.760;37.726;2024-01-27T05:43:58;8.85;;;5.55;;
79025;SDS011;74892;44.760;37.726;2024-01-27T05:45:00;9.10;;;5.57;;
79025;SDS011;74892;44.760;37.726;2024-01-27T05:46:03;8.77;;;5.50;;
79025;SDS011;74892;44.760;37.726;2024-01-27T05:47:04;8.05;;;4.80;;
79025;SDS011;74892;44.760;37.726;2024-01-27T05:48:06;9.07;;;5.45;;
79025;SDS011;74892;44.760;37.726;2024-01-27T05:49:08;8.80;;;5.70;;
79025;SDS011;74892;44.760;37.726;2024-01-27T05:50:09;9.73;;;5.50;;
79025;SDS011;74892;44.760;37.726;2024-01-27T05:51:11;10.38;;;6.38;;
79025;SDS011;74892;44.760;37.726;2024-01-27T05:52:13;15.85;;;9.35;;
79025;SDS011;74892;44.760;37.726;2024-01-27T05:53:14;9.68;;;7.68;;
79025;SDS011;74892;44.760;37.726;2024-01-27T05:54:16;10.43;;;7.82;;
79025;SDS011;74892;44.760;37.726;2024-01-27T05:55:17;11.38;;;8.05;;
79025;SDS011;74892;44.760;37.726;2024-01-27T05:56:19;13.90;;;7.85;;
79025;SDS011;74892;44.760;37.726;2024-01-27T05:57:23;10.60;;;6.28;;
79025;SDS011;74892;44.760;37.726;2024-01-27T05:58:25;10.48;;;5.97;;
79025;SDS011;74892;44.760;37.726;2024-01-27T05:59:27;10.50;;;6.57;;
79025;SDS011;74892;44.760;37.726;2024-01-27T06:00:28;12.60;;;6.40;;
79025;SDS011;74892;44.760;37.726;2024-01-27T06:01:30;11.02;;;6.88;;
79025;SDS011;74892;44.760;37.726;2024-01-27T06:02:31;10.10;;;6.18;;
79025;SDS011;74892;44.760;37.726;2024-01-27T06:03:33;9.45;;;5.72;;
79025;SDS011;74892;44.760;37.726;2024-01-27T06:04:34;10.63;;;5.75;;
79025;SDS011;74892;44.760;37.726;2024-01-27T06:05:36;10.50;;;6.90;;
79025;SDS011;74892;44.760;37.726;2024-01-27T06:06:38;9.93;;;6.68;;
79025;SDS011;74892;44.760;37.726;2024-01-27T06:07:40;11.07;;;7.10;;
79025;SDS011;74892;44.760;37.726;2024-01-27T06:08:43;11.63;;;6.95;;
79025;SDS011;74892;44.760;37.726;2024-01-27T06:09:44;9.68;;;6.65;;
79025;SDS011;74892;44.760;37.726;2024-01-27T06:10:46;9.95;;;6.05;;
79025;SDS011;74892;44.760;37.726;2024-01-27T06:11:48;9.48;;;6.25;;
79025;SDS011;74892;44.760;37.726;2024-01-27T06:12:49;9.52;;;6.07;;
79025;SDS011;74892;44.760;37.726;2024-01-27T06:13:51;9.18;;;6.50;;
79025;SDS011;74892;44.760;37.726;2024-01-27T06:14:53;8.45;;;5.13;;
79025;SDS011;74892;44.760;37.726;2024-01-27T06:15:55;9.20;;;5.82;;
79025;SDS011;74892;44.760;37.726;2024-01-27T06:16:56;8.65;;;5.72;;